Time;durP1;ratioP1;P1;durP2;ratioP2;P2;SDS_P1;SDS_P2;PMS_P1;PMS_P2;Temp;Humidity;BMP_temperature;BMP_pressure;BME280_temperature;BME280_humidity;BME280_pressure;Samples;Min_cycle;Max_cycle;Signal;HPM_P1;HPM_P2
2021/05/24 00:00:41;;;;;;;0.40;0.40;;;;;;;8.93;74.87;100374.19;5072549;28;20198;-73
2021/05/24 00:03:07;;;;;;;0.43;0.43;;;;;;;8.99;74.80;100364.84;5072686;28;20221;-73
2021/05/24 00:05:35;;;;;;;0.80;0.80;;;;;;;9.00;74.11;100358.28;5072568;28;20475;-73
2021/05/24 00:08:01;;;;;;;5.23;0.70;;;;;;;9.08;73.92;100360.28;5072422;28;20277;-73
2021/05/24 00:10:29;;;;;;;0.40;0.37;;;;;;;9.10;73.69;100368.13;5072244;28;20183;-74
2021/05/24 00:13:00;;;;;;;0.30;0.30;;;;;;;9.17;73.51;100360.38;5072292;28;20179;-73
2021/05/24 00:15:29;;;;;;;0.30;0.30;;;;;;;9.19;73.34;100363.59;5072304;28;20181;-73
2021/05/24 00:17:55;;;;;;;0.40;0.40;;;;;;;9.10;73.67;100370.88;5072303;28;20254;-73
2021/05/24 00:20:25;;;;;;;0.33;0.33;;;;;;;9.11;73.56;100369.75;5072238;28;20261;-73
2021/05/24 00:22:51;;;;;;;0.37;0.37;;;;;;;9.14;73.98;100369.97;5072368;28;20181;-73
2021/05/24 00:25:17;;;;;;;0.73;0.40;;;;;;;9.14;73.93;100361.78;5072145;28;20182;-73
2021/05/24 00:27:43;;;;;;;0.43;0.43;;;;;;;9.17;74.11;100360.38;5071986;28;20227;-73
2021/05/24 00:30:11;;;;;;;0.80;0.50;;;;;;;9.13;73.46;100360.19;5071992;28;20170;-73
2021/05/24 00:32:36;;;;;;;0.27;0.27;;;;;;;9.10;73.47;100355.31;5070613;28;20179;-72
2021/05/24 00:35:02;;;;;;;0.73;0.40;;;;;;;9.20;73.28;100359.75;5071909;28;20175;-73
2021/05/24 00:37:28;;;;;;;0.30;0.30;;;;;;;9.13;73.90;100353.94;5071688;28;20186;-73
2021/05/24 00:39:53;;;;;;;0.40;0.40;;;;;;;9.10;73.91;100351.78;5071618;28;20206;-73
2021/05/24 00:42:18;;;;;;;0.30;0.30;;;;;;;9.11;73.63;100353.41;5071730;28;20174;-73
2021/05/24 00:44:44;;;;;;;0.40;0.40;;;;;;;9.11;73.51;100356.13;5071610;28;20175;-72
2021/05/24 00:47:09;;;;;;;0.20;0.20;;;;;;;9.11;73.42;100356.97;5071497;28;20186;-73
2021/05/24 00:49:35;;;;;;;0.30;0.30;;;;;;;9.10;73.63;100344.41;5071449;28;20178;-72
2021/05/24 00:52:00;;;;;;;0.30;0.30;;;;;;;9.06;73.66;100357.03;5071696;28;20239;-73
2021/05/24 00:54:27;;;;;;;0.30;0.30;;;;;;;9.01;73.94;100342.72;5071555;28;20187;-73
2021/05/24 00:56:54;;;;;;;0.40;0.40;;;;;;;9.08;73.84;100334.94;5071462;28;20250;-72
2021/05/24 00:59:21;;;;;;;0.30;0.30;;;;;;;8.98;73.75;100337.88;5071186;28;20254;-72
2021/05/24 01:01:47;;;;;;;0.70;0.70;;;;;;;9.02;73.61;100325.25;5071468;28;20295;-73
2021/05/24 01:04:14;;;;;;;0.30;0.30;;;;;;;9.05;73.10;100330.91;5071426;28;20177;-72
2021/05/24 01:06:40;;;;;;;0.37;0.37;;;;;;;9.00;72.75;100333.75;5071573;28;20566;-72
2021/05/24 01:09:06;;;;;;;0.90;0.40;;;;;;;9.04;73.07;100329.28;5071145;28;20186;-73
2021/05/24 01:11:31;;;;;;;0.53;0.53;;;;;;;8.99;73.07;100332.13;5071479;28;20178;-73
2021/05/24 01:13:57;;;;;;;0.40;0.40;;;;;;;8.95;73.76;100326.47;5071234;28;20174;-73
2021/05/24 01:16:22;;;;;;;0.20;0.20;;;;;;;8.89;73.40;100319.50;5071126;28;20699;-72
2021/05/24 01:18:48;;;;;;;0.40;0.40;;;;;;;8.99;72.87;100317.69;5070881;28;20225;-73
2021/05/24 01:21:16;;;;;;;0.77;0.73;;;;;;;9.08;72.01;100315.84;5070773;28;20171;-72
2021/05/24 01:23:43;;;;;;;0.20;0.20;;;;;;;9.18;71.80;100318.38;5071359;28;20614;-72
2021/05/24 01:26:09;;;;;;;0.80;0.80;;;;;;;9.16;72.06;100318.69;5071001;28;20630;-72
2021/05/24 01:28:35;;;;;;;0.50;0.50;;;;;;;9.13;71.69;100310.31;5070946;28;20184;-74
2021/05/24 01:31:01;;;;;;;1.70;0.30;;;;;;;9.13;71.49;100302.94;5070993;28;20171;-74
2021/05/24 01:33:27;;;;;;;3.87;1.03;;;;;;;9.05;71.75;100306.38;5070899;28;20254;-72
2021/05/24 01:35:53;;;;;;;0.20;0.20;;;;;;;9.00;72.35;100300.25;5071348;28;20593;-72
2021/05/24 01:38:19;;;;;;;0.30;0.30;;;;;;;9.02;72.20;100289.84;5070854;28;20186;-73
2021/05/24 01:40:47;;;;;;;2.10;0.57;;;;;;;9.04;72.21;100290.34;5070837;28;20166;-73
2021/05/24 01:43:13;;;;;;;0.23;0.23;;;;;;;9.10;72.23;100283.66;5070872;28;20171;-72
2021/05/24 01:45:39;;;;;;;0.20;0.20;;;;;;;8.98;72.66;100283.41;5069867;28;20201;-74
2021/05/24 01:48:06;;;;;;;0.20;0.20;;;;;;;9.01;72.94;100285.50;5070787;28;20770;-72
2021/05/24 01:50:31;;;;;;;0.30;0.30;;;;;;;9.03;72.93;100288.72;5070877;28;20182;-73
2021/05/24 01:52:57;;;;;;;0.30;0.30;;;;;;;9.00;72.66;100292.06;5070774;28;20167;-72
2021/05/24 01:55:23;;;;;;;0.30;0.30;;;;;;;8.92;73.55;100290.84;5070759;28;20228;-73
2021/05/24 01:57:48;;;;;;;0.80;0.80;;;;;;;8.94;73.58;100286.69;5070892;28;20545;-72
2021/05/24 02:00:17;;;;;;;0.20;0.10;;;;;;;9.01;73.16;100289.03;5070635;28;20577;-73
2021/05/24 02:02:44;;;;;;;0.40;0.40;;;;;;;8.93;73.68;100285.09;5070652;28;20178;-73
2021/05/24 02:05:10;;;;;;;0.40;0.40;;;;;;;8.89;73.78;100286.81;5070725;28;20185;-73
2021/05/24 02:07:37;;;;;;;0.20;0.20;;;;;;;8.90;74.80;100280.25;5070516;28;20174;-73
2021/05/24 02:10:05;;;;;;;0.90;0.50;;;;;;;8.99;73.80;100288.53;5070568;28;20265;-74
2021/05/24 02:12:31;;;;;;;0.87;0.87;;;;;;;8.92;74.61;100283.47;5070318;28;20533;-73
2021/05/24 02:14:56;;;;;;;0.40;0.40;;;;;;;8.86;74.66;100278.44;5070674;28;20167;-73
2021/05/24 02:17:22;;;;;;;0.20;0.20;;;;;;;8.90;74.68;100284.91;5070642;28;20234;-73
2021/05/24 02:19:48;;;;;;;1.03;0.40;;;;;;;8.87;74.38;100282.78;5070333;28;20202;-73
2021/05/24 02:22:15;;;;;;;0.20;0.10;;;;;;;8.98;74.59;100288.84;5070347;28;20173;-73
2021/05/24 02:24:41;;;;;;;0.20;0.20;;;;;;;8.99;74.38;100285.00;5070373;28;20166;-73
2021/05/24 02:27:08;;;;;;;0.30;0.30;;;;;;;8.94;75.04;100283.16;5070495;28;20189;-73
2021/05/24 02:29:34;;;;;;;0.57;0.30;;;;;;;8.89;75.17;100283.28;5070395;28;20177;-74
2021/05/24 02:31:59;;;;;;;0.57;0.40;;;;;;;8.90;75.12;100279.44;5069060;28;20171;-73
2021/05/24 02:34:25;;;;;;;0.50;0.40;;;;;;;8.89;75.84;100289.53;5073627;28;20189;-73
2021/05/24 02:36:50;;;;;;;0.40;0.40;;;;;;;8.85;76.42;100283.09;5074398;28;20174;-73
2021/05/24 02:39:15;;;;;;;0.50;0.40;;;;;;;8.86;76.32;100279.25;5076705;28;20206;-73
2021/05/24 02:41:41;;;;;;;0.30;0.30;;;;;;;8.84;76.17;100286.13;5074779;28;20690;-73
2021/05/24 02:44:06;;;;;;;0.00;0.00;;;;;;;8.83;76.49;100282.59;5074001;28;20178;-73
2021/05/24 02:46:32;;;;;;;0.30;0.30;;;;;;;8.82;76.14;100286.41;5072784;28;20224;-73
2021/05/24 02:48:58;;;;;;;0.30;0.30;;;;;;;8.70;77.38;100283.41;5073784;28;20174;-73
2021/05/24 02:51:23;;;;;;;0.20;0.20;;;;;;;8.73;77.73;100276.53;5073867;28;20170;-73
2021/05/24 02:53:50;;;;;;;1.17;0.33;;;;;;;8.76;77.17;100281.38;5073817;28;20202;-73
2021/05/24 02:56:15;;;;;;;0.20;0.20;;;;;;;8.78;77.56;100274.50;5073748;28;20183;-73
2021/05/24 02:58:41;;;;;;;0.40;0.30;;;;;;;8.74;78.17;100272.69;5073424;28;20264;-73
2021/05/24 03:01:06;;;;;;;0.10;0.10;;;;;;;8.74;77.87;100268.06;5073788;28;20204;-71
2021/05/24 03:03:33;;;;;;;0.67;0.67;;;;;;;8.65;78.00;100278.03;5073900;28;20171;-72
2021/05/24 03:06:01;;;;;;;0.33;0.33;;;;;;;8.65;78.80;100275.31;5073695;28;20171;-72
2021/05/24 03:08:26;;;;;;;0.50;0.20;;;;;;;8.71;78.55;100276.84;5073412;28;20224;-72
2021/05/24 03:10:51;;;;;;;0.30;0.30;;;;;;;8.80;78.10;100276.94;5073649;28;20537;-72
2021/05/24 03:13:17;;;;;;;0.30;0.30;;;;;;;8.57;79.03;100276.84;5073561;28;20621;-72
2021/05/24 03:15:42;;;;;;;0.30;0.30;;;;;;;8.70;79.41;100268.97;5073498;28;20200;-73
2021/05/24 03:18:07;;;;;;;0.30;0.30;;;;;;;8.75;78.78;100271.59;5073174;28;20182;-72
2021/05/24 03:20:33;;;;;;;0.87;0.30;;;;;;;8.58;79.06;100267.56;5073383;28;20163;-73
2021/05/24 03:22:58;;;;;;;0.33;0.33;;;;;;;8.52;79.12;100257.06;5073357;28;20205;-72
2021/05/24 03:25:23;;;;;;;0.60;0.30;;;;;;;8.49;79.75;100260.38;5073244;28;20217;-72
2021/05/24 03:27:49;;;;;;;0.20;0.20;;;;;;;8.39;79.91;100263.28;5073098;28;20171;-74
2021/05/24 03:30:16;;;;;;;0.30;0.20;;;;;;;8.03;80.56;100259.28;5073269;28;20175;-73
2021/05/24 03:32:42;;;;;;;0.30;0.30;;;;;;;7.60;83.31;100264.09;5055229;28;20535;-72
2021/05/24 03:35:08;;;;;;;1.00;0.23;;;;;;;7.74;83.04;100250.53;5073017;28;20177;-73
2021/05/24 03:37:34;;;;;;;0.23;0.23;;;;;;;7.51;84.20;100246.81;5073061;28;20175;-73
2021/05/24 03:39:59;;;;;;;0.30;0.30;;;;;;;7.56;84.98;100245.94;5072795;28;20201;-72
2021/05/24 03:42:25;;;;;;;0.47;0.47;;;;;;;7.58;84.47;100243.75;5073033;28;20626;-72
2021/05/24 03:44:51;;;;;;;0.27;0.27;;;;;;;7.37;85.62;100246.75;5072557;28;20170;-73
2021/05/24 03:47:16;;;;;;;0.30;0.30;;;;;;;7.56;85.12;100235.88;5072886;28;20171;-72
2021/05/24 03:49:45;;;;;;;0.50;0.50;;;;;;;7.74;84.39;100239.66;5072737;28;20277;-72
2021/05/24 03:52:15;;;;;;;0.20;0.20;;;;;;;7.88;84.60;100226.91;5072735;28;20630;-72
2021/05/24 03:54:41;;;;;;;0.43;0.43;;;;;;;8.18;83.20;100230.19;5072852;28;20175;-73
2021/05/24 03:57:09;;;;;;;0.47;0.47;;;;;;;8.45;82.10;100229.44;5072987;28;20182;-72
2021/05/24 03:59:35;;;;;;;0.43;0.43;;;;;;;8.49;81.46;100233.16;5072434;28;20223;-74
2021/05/24 04:02:00;;;;;;;1.07;1.03;;;;;;;8.66;80.62;100236.06;5072562;28;20174;-73
2021/05/24 04:04:26;;;;;;;0.30;0.30;;;;;;;8.83;80.06;100233.56;5072865;28;20220;-72
2021/05/24 04:06:57;;;;;;;0.30;0.30;;;;;;;8.91;79.79;100237.47;5072782;28;20468;-73
2021/05/24 04:09:23;;;;;;;0.10;0.10;;;;;;;9.05;78.98;100232.00;5072220;28;20167;-73
2021/05/24 04:11:49;;;;;;;0.10;0.10;;;;;;;9.19;78.52;100235.50;5072250;28;20198;-73
2021/05/24 04:14:15;;;;;;;0.47;0.30;;;;;;;9.32;78.26;100242.84;5071054;28;20181;-72
2021/05/24 04:16:41;;;;;;;0.23;0.23;;;;;;;9.45;77.23;100238.44;5072294;28;20200;-72
2021/05/24 04:19:09;;;;;;;0.40;0.40;;;;;;;9.58;76.36;100244.97;5072138;28;20225;-73
2021/05/24 04:21:36;;;;;;;0.10;0.10;;;;;;;9.68;76.50;100241.97;5072151;28;20614;-72
2021/05/24 04:24:01;;;;;;;0.37;0.37;;;;;;;9.74;76.41;100241.56;5070825;28;20190;-73
2021/05/24 04:26:26;;;;;;;1.20;1.10;;;;;;;9.83;75.82;100233.41;5072188;28;20224;-73
2021/05/24 04:28:52;;;;;;;2.67;0.57;;;;;;;9.89;75.98;100224.00;5072270;28;20265;-73
2021/05/24 04:31:17;;;;;;;0.20;0.20;;;;;;;9.98;75.90;100232.22;5072020;28;20198;-73
2021/05/24 04:33:42;;;;;;;0.40;0.40;;;;;;;10.08;75.20;100234.69;5071979;28;20184;-72
2021/05/24 04:36:08;;;;;;;0.10;0.10;;;;;;;10.16;74.94;100244.06;5071878;28;20649;-73
2021/05/24 04:38:33;;;;;;;0.37;0.20;;;;;;;10.18;75.05;100233.63;5071622;28;20208;-73
2021/05/24 04:40:58;;;;;;;0.20;0.20;;;;;;;10.36;74.51;100235.34;5071726;28;20192;-73
2021/05/24 04:43:28;;;;;;;0.40;0.40;;;;;;;10.46;73.36;100234.25;5071793;28;20182;-73
2021/05/24 04:45:55;;;;;;;1.00;0.73;;;;;;;10.57;73.14;100227.41;5071904;28;20623;-72
2021/05/24 04:48:20;;;;;;;0.20;0.20;;;;;;;10.61;72.48;100237.38;5072030;28;20223;-74
2021/05/24 04:50:45;;;;;;;0.40;0.30;;;;;;;10.70;73.70;100234.66;5072037;28;20186;-73
2021/05/24 04:53:11;;;;;;;0.20;0.20;;;;;;;10.78;73.53;100233.88;5071820;28;20235;-73
2021/05/24 04:55:36;;;;;;;0.20;0.20;;;;;;;10.80;72.98;100236.28;5071091;28;20231;-73
2021/05/24 04:58:02;;;;;;;0.30;0.30;;;;;;;10.84;72.84;100229.84;5070561;28;20257;-72
2021/05/24 05:00:27;;;;;;;11.10;0.67;;;;;;;10.90;72.76;100217.66;5071519;28;20178;-73
2021/05/24 05:02:53;;;;;;;0.20;0.20;;;;;;;11.01;72.49;100227.19;5071975;28;20575;-73
2021/05/24 05:05:18;;;;;;;0.10;0.10;;;;;;;11.14;72.54;100230.91;5071617;28;20178;-75
2021/05/24 05:07:43;;;;;;;0.20;0.20;;;;;;;11.23;71.79;100230.88;5070021;28;20178;-72
2021/05/24 05:10:09;;;;;;;0.77;0.40;;;;;;;11.25;71.31;100228.63;5071447;28;20174;-73
2021/05/24 05:12:34;;;;;;;0.30;0.30;;;;;;;11.36;72.21;100218.19;5071534;28;20190;-73
2021/05/24 05:15:00;;;;;;;0.33;0.23;;;;;;;11.39;71.21;100223.00;5071527;28;20174;-73
2021/05/24 05:17:26;;;;;;;0.10;0.10;;;;;;;11.47;71.03;100214.81;5071615;28;20645;-73
2021/05/24 05:19:51;;;;;;;0.33;0.20;;;;;;;11.54;70.68;100219.78;5071056;28;20226;-73
2021/05/24 05:22:17;;;;;;;0.20;0.20;;;;;;;11.51;70.12;100212.22;5071410;28;20247;-73
2021/05/24 05:24:42;;;;;;;0.13;0.13;;;;;;;11.55;69.96;100215.91;5071495;28;20173;-72
2021/05/24 05:27:08;;;;;;;0.20;0.20;;;;;;;11.57;71.38;100210.91;5071309;28;20707;-72
2021/05/24 05:29:33;;;;;;;0.60;0.30;;;;;;;11.61;70.76;100212.69;5071151;28;20182;-74
2021/05/24 05:31:58;;;;;;;0.10;0.10;;;;;;;11.63;70.64;100210.44;5071065;28;20232;-73
2021/05/24 05:34:24;;;;;;;0.20;0.20;;;;;;;11.66;71.29;100206.25;5071366;28;20182;-74
2021/05/24 05:36:50;;;;;;;0.20;0.20;;;;;;;11.69;69.79;100205.59;5071036;28;20657;-73
2021/05/24 05:39:15;;;;;;;0.40;0.40;;;;;;;11.84;69.97;100216.06;5070577;28;20198;-74
2021/05/24 05:41:40;;;;;;;0.37;0.33;;;;;;;11.89;69.15;100202.22;5070644;28;20257;-73
2021/05/24 05:44:06;;;;;;;0.40;0.30;;;;;;;11.99;69.33;100194.78;5070528;28;20206;-73
2021/05/24 05:46:33;;;;;;;0.30;0.30;;;;;;;12.04;70.49;100194.59;5070642;28;20251;-74
2021/05/24 05:48:58;;;;;;;0.67;0.40;;;;;;;12.03;69.50;100198.47;5070305;28;20185;-72
2021/05/24 05:51:25;;;;;;;0.37;0.37;;;;;;;12.09;69.52;100199.91;5069969;28;20187;-72
2021/05/24 05:53:52;;;;;;;0.63;0.40;;;;;;;12.15;69.91;100193.09;5068618;28;20178;-72
2021/05/24 05:56:17;;;;;;;0.10;0.10;;;;;;;12.21;69.29;100203.56;5059661;28;20194;-71
2021/05/24 05:58:42;;;;;;;0.23;0.23;;;;;;;12.33;68.70;100194.66;5066736;28;20202;-72
2021/05/24 06:01:08;;;;;;;0.20;0.20;;;;;;;12.32;68.60;100186.78;5067775;28;20189;-73
2021/05/24 06:03:33;;;;;;;0.10;0.10;;;;;;;12.41;68.32;100184.78;5069824;28;20205;-74
2021/05/24 06:05:59;;;;;;;0.27;0.23;;;;;;;12.49;68.19;100186.69;5064982;28;20248;-74
2021/05/24 06:08:24;;;;;;;0.10;0.10;;;;;;;12.63;67.50;100178.22;5064799;28;20198;-75
2021/05/24 06:10:50;;;;;;;0.10;0.10;;;;;;;12.88;67.23;100181.94;5073615;28;20197;-74
2021/05/24 06:13:15;;;;;;;0.20;0.10;;;;;;;12.75;65.14;100181.06;5058657;28;20265;-73
2021/05/24 06:15:41;;;;;;;0.13;0.13;;;;;;;12.76;65.42;100185.41;5060622;28;20206;-73
2021/05/24 06:18:06;;;;;;;4.27;1.47;;;;;;;12.96;66.09;100173.63;5073931;28;20174;-74
2021/05/24 06:20:31;;;;;;;0.10;0.10;;;;;;;13.15;63.84;100175.91;5074017;28;20224;-74
2021/05/24 06:22:57;;;;;;;0.17;0.10;;;;;;;13.12;63.63;100184.81;5074212;28;20594;-74
2021/05/24 06:25:22;;;;;;;0.20;0.20;;;;;;;13.17;63.14;100187.38;5072739;28;20175;-73
2021/05/24 06:27:48;;;;;;;0.20;0.20;;;;;;;13.32;62.55;100189.53;5073661;28;20591;-74
2021/05/24 06:30:13;;;;;;;0.20;0.20;;;;;;;13.35;62.86;100186.13;5072829;28;20175;-75
2021/05/24 06:32:39;;;;;;;0.50;0.50;;;;;;;13.37;62.52;100180.28;5073809;28;20170;-75
2021/05/24 06:35:05;;;;;;;0.43;0.43;;;;;;;13.33;61.87;100179.38;5073935;28;20197;-74
2021/05/24 06:37:31;;;;;;;0.17;0.17;;;;;;;13.45;62.37;100184.06;5072612;28;20596;-75
2021/05/24 06:39:56;;;;;;;0.30;0.30;;;;;;;13.48;62.08;100183.44;5073544;28;20209;-75
2021/05/24 06:42:23;;;;;;;0.10;0.10;;;;;;;13.65;63.97;100175.03;5073706;28;20504;-75
2021/05/24 06:44:49;;;;;;;0.23;0.20;;;;;;;13.62;61.28;100179.25;5073845;28;20163;-74
2021/05/24 06:47:14;;;;;;;0.10;0.10;;;;;;;13.67;61.45;100176.28;5073569;28;20708;-74
2021/05/24 06:49:39;;;;;;;0.30;0.30;;;;;;;13.83;62.21;100175.63;5073223;28;20178;-75
2021/05/24 06:52:05;;;;;;;0.20;0.20;;;;;;;13.95;61.46;100175.66;5073523;28;20247;-74
2021/05/24 06:54:31;;;;;;;0.40;0.20;;;;;;;14.05;62.24;100174.44;5073504;28;20193;-75
2021/05/24 06:56:56;;;;;;;0.33;0.30;;;;;;;14.13;61.81;100170.78;5073353;28;20174;-75
2021/05/24 06:59:21;;;;;;;0.30;0.20;;;;;;;14.24;61.41;100172.72;5053242;28;20709;-76
2021/05/24 07:01:47;;;;;;;0.10;0.10;;;;;;;14.34;61.55;100176.19;5053221;28;20175;-75
2021/05/24 07:04:12;;;;;;;0.20;0.20;;;;;;;14.55;62.17;100176.88;5053159;28;20223;-73
2021/05/24 07:06:38;;;;;;;0.20;0.20;;;;;;;14.57;58.96;100178.13;5051719;28;20469;-74
2021/05/24 07:09:04;;;;;;;0.83;0.20;;;;;;;14.45;58.52;100174.59;5064944;28;20713;-73
2021/05/24 07:11:29;;;;;;;0.23;0.10;;;;;;;14.52;59.89;100172.88;5073167;28;20178;-73
2021/05/24 07:13:54;;;;;;;0.43;0.10;;;;;;;14.69;59.75;100171.03;5072993;28;20170;-74
2021/05/24 07:16:20;;;;;;;0.10;0.10;;;;;;;14.76;61.05;100168.53;5073289;28;20414;-74
2021/05/24 07:18:45;;;;;;;0.27;0.20;;;;;;;14.92;60.76;100168.59;5071817;28;20662;-74
2021/05/24 07:21:10;;;;;;;0.23;0.23;;;;;;;15.04;58.56;100161.09;5072737;28;20239;-74
2021/05/24 07:23:36;;;;;;;0.30;0.30;;;;;;;15.10;59.55;100156.16;5072801;28;20265;-73
2021/05/24 07:26:01;;;;;;;0.30;0.17;;;;;;;15.20;58.42;100161.19;5072815;28;20308;-73
2021/05/24 07:28:27;;;;;;;0.20;0.20;;;;;;;15.32;56.95;100149.31;5071329;28;20179;-74
2021/05/24 07:30:52;;;;;;;0.10;0.10;;;;;;;15.32;58.66;100143.81;5072418;28;20183;-74
2021/05/24 07:33:18;;;;;;;0.20;0.20;;;;;;;15.35;57.17;100152.19;5072570;28;20175;-74
2021/05/24 07:35:43;;;;;;;0.17;0.17;;;;;;;15.36;57.31;100142.78;5072214;28;20178;-74
2021/05/24 07:38:09;;;;;;;0.30;0.30;;;;;;;15.40;58.41;100151.13;5072251;28;20179;-74
2021/05/24 07:40:35;;;;;;;0.30;0.30;;;;;;;15.44;57.76;100136.28;5067991;28;20178;-75
2021/05/24 07:43:01;;;;;;;0.10;0.10;;;;;;;15.52;56.20;100136.50;5072144;28;20183;-74
2021/05/24 07:45:26;;;;;;;0.20;0.10;;;;;;;15.58;56.23;100127.63;5057169;28;20175;-76
2021/05/24 07:47:51;;;;;;;0.20;0.20;;;;;;;15.73;56.25;100132.38;5071519;28;20228;-72
2021/05/24 07:50:17;;;;;;;1.17;0.27;;;;;;;15.72;56.59;100124.47;5072167;28;20182;-72
2021/05/24 07:52:42;;;;;;;0.17;0.17;;;;;;;15.86;57.26;100122.09;5072251;28;20179;-73
2021/05/24 07:55:08;;;;;;;0.20;0.20;;;;;;;16.06;55.74;100120.25;5072239;28;20182;-74
2021/05/24 07:57:35;;;;;;;0.50;0.30;;;;;;;16.09;56.02;100116.78;5069779;28;20187;-74
2021/05/24 08:00:00;;;;;;;0.13;0.13;;;;;;;16.16;55.23;100121.66;5073841;28;20230;-73
2021/05/24 08:02:26;;;;;;;0.03;0.03;;;;;;;16.13;54.34;100116.84;5074103;28;20668;-73
2021/05/24 08:04:51;;;;;;;0.10;0.10;;;;;;;16.17;55.55;100114.97;5069892;28;20226;-72
2021/05/24 08:07:18;;;;;;;0.37;0.33;;;;;;;16.20;54.52;100117.00;5076759;28;20706;-73
2021/05/24 08:09:44;;;;;;;0.07;0.07;;;;;;;16.20;54.67;100111.50;5075403;28;20206;-72
2021/05/24 08:12:12;;;;;;;0.20;0.20;;;;;;;16.40;54.07;100113.19;5058042;28;20274;-75
2021/05/24 08:14:37;;;;;;;0.27;0.27;;;;;;;16.41;51.99;100102.94;5052691;28;20175;-75
2021/05/24 08:17:02;;;;;;;0.20;0.20;;;;;;;16.57;52.64;100093.47;5052076;28;20592;-72
2021/05/24 08:19:28;;;;;;;0.10;0.10;;;;;;;16.64;52.24;100090.09;5052312;28;20211;-75
2021/05/24 08:21:53;;;;;;;0.10;0.10;;;;;;;16.65;52.59;100092.47;5052040;28;20461;-73
2021/05/24 08:24:19;;;;;;;0.80;0.10;;;;;;;16.84;52.01;100088.97;5051996;28;20255;-73
2021/05/24 08:26:46;;;;;;;0.30;0.30;;;;;;;16.87;53.40;100095.72;5067145;28;20733;-73
2021/05/24 08:29:11;;;;;;;0.20;0.20;;;;;;;17.03;53.61;100093.69;5065691;28;20185;-73
2021/05/24 08:31:37;;;;;;;0.10;0.10;;;;;;;17.12;50.95;100079.66;5069047;28;20182;-73
2021/05/24 08:34:03;;;;;;;0.10;0.10;;;;;;;17.13;50.54;100075.75;5059109;28;20176;-74
2021/05/24 08:36:29;;;;;;;0.80;0.70;;;;;;;17.19;50.49;100072.31;5054504;28;20194;-74
2021/05/24 08:38:54;;;;;;;0.40;0.20;;;;;;;17.31;52.89;100084.38;5069323;28;20214;-74
2021/05/24 08:41:20;;;;;;;0.20;0.20;;;;;;;17.37;51.61;100071.88;5070355;28;20253;-75
2021/05/24 08:43:45;;;;;;;0.10;0.10;;;;;;;17.51;52.29;100074.91;5071307;28;20183;-74
2021/05/24 08:46:11;;;;;;;0.20;0.20;;;;;;;17.60;51.93;100072.69;5058612;28;20270;-74
2021/05/24 08:48:37;;;;;;;0.10;0.10;;;;;;;17.50;49.77;100076.03;5070238;28;20248;-74
2021/05/24 08:51:05;;;;;;;0.20;0.10;;;;;;;17.52;51.32;100065.44;5070927;28;20186;-74
2021/05/24 08:53:31;;;;;;;0.20;0.10;;;;;;;17.62;51.25;100064.81;5071272;28;20266;-73
2021/05/24 08:55:57;;;;;;;0.40;0.30;;;;;;;17.64;50.00;100062.47;5070096;28;20274;-75
2021/05/24 08:58:23;;;;;;;0.30;0.10;;;;;;;17.76;49.11;100050.47;5070594;28;20187;-74
2021/05/24 09:00:48;;;;;;;0.10;0.10;;;;;;;17.85;50.04;100045.50;5071054;28;20657;-74
2021/05/24 09:03:20;;;;;;;0.17;0.17;;;;;;;17.95;49.60;100044.88;5071151;28;20235;-74
2021/05/24 09:05:47;;;;;;;0.10;0.10;;;;;;;18.00;48.54;100035.47;5071526;28;20194;-74
2021/05/24 09:08:12;;;;;;;0.20;0.20;;;;;;;17.95;46.70;100042.13;5071067;28;20183;-74
2021/05/24 09:10:42;;;;;;;0.10;0.10;;;;;;;17.93;46.28;100041.66;5071258;28;20229;-74
2021/05/24 09:13:12;;;;;;;0.10;0.10;;;;;;;18.05;45.53;100043.44;5071183;28;20198;-74
2021/05/24 09:15:43;;;;;;;0.33;0.33;;;;;;;18.05;43.48;100040.69;5070816;28;20717;-74
2021/05/24 09:18:09;;;;;;;0.20;0.20;;;;;;;18.01;45.55;100042.59;5069680;28;20634;-74
2021/05/24 09:20:43;;;;;;;2.43;0.20;;;;;;;18.12;44.95;100038.84;5069647;28;20630;-74
2021/05/24 09:23:15;;;;;;;0.10;0.10;;;;;;;18.33;46.91;100045.84;5069705;28;20610;-72
2021/05/24 09:26:17;;;;;;;0.10;0.10;;;;;;;18.43;44.10;100023.06;5070861;28;20179;-74
2021/05/24 09:28:43;;;;;;;0.10;0.10;;;;;;;18.32;42.61;100027.66;5068917;28;20284;-74
2021/05/24 09:31:18;;;;;;;0.10;0.10;;;;;;;18.38;44.54;100029.72;5069727;28;20281;-74
2021/05/24 09:33:57;;;;;;;0.87;0.20;;;;;;;18.37;43.35;100019.84;5070361;28;20256;-74
2021/05/24 09:36:24;;;;;;;0.03;0.03;;;;;;;18.61;43.54;100015.78;5069124;28;20224;-75
2021/05/24 09:39:01;;;;;;;0.30;0.30;;;;;;;18.42;43.83;100019.50;5070063;28;20586;-73
2021/05/24 09:41:27;;;;;;;0.10;0.10;;;;;;;18.31;43.51;100015.00;5069981;28;20185;-75
2021/05/24 09:43:54;;;;;;;0.10;0.10;;;;;;;18.34;46.46;100006.72;5070303;28;20171;-72
2021/05/24 09:46:24;;;;;;;0.00;0.00;;;;;;;18.61;43.55;100004.72;5070419;28;20634;-73
2021/05/24 09:49:02;;;;;;;0.43;0.20;;;;;;;18.46;44.53;99996.63;5066857;28;20194;-73
2021/05/24 09:51:31;;;;;;;0.13;0.13;;;;;;;18.63;45.43;100007.94;5068546;28;20550;-74
2021/05/24 09:54:09;;;;;;;0.10;0.10;;;;;;;18.38;43.65;99991.00;5065727;28;20179;-74
2021/05/24 09:56:47;;;;;;;0.20;0.20;;;;;;;18.30;45.27;99999.56;5065578;28;20173;-74
2021/05/24 09:59:21;;;;;;;0.30;0.10;;;;;;;18.29;44.91;99989.69;5070221;28;20584;-74
2021/05/24 10:01:50;;;;;;;0.20;0.20;;;;;;;18.30;45.55;99981.00;5070685;28;20182;-74
2021/05/24 10:04:22;;;;;;;0.20;0.20;;;;;;;18.47;46.27;99967.78;5070941;28;20197;-74
2021/05/24 10:06:48;;;;;;;0.23;0.23;;;;;;;18.51;44.80;99976.91;5070488;28;20177;-74
2021/05/24 10:09:16;;;;;;;0.30;0.20;;;;;;;18.41;45.59;99951.53;5069459;28;20174;-74
2021/05/24 10:11:44;;;;;;;0.20;0.20;;;;;;;18.29;45.95;99953.72;5069959;28;20201;-74
2021/05/24 10:14:11;;;;;;;0.20;0.20;;;;;;;18.16;46.11;99941.31;5066380;28;20186;-74
2021/05/24 10:16:48;;;;;;;0.23;0.17;;;;;;;17.96;46.00;99946.19;5066787;28;20696;-74
2021/05/24 10:19:13;;;;;;;1.43;0.70;;;;;;;18.02;44.05;99941.91;5070522;28;20193;-72
2021/05/24 10:21:39;;;;;;;0.53;0.43;;;;;;;18.08;45.27;99945.94;5070724;28;20182;-74
2021/05/24 10:24:08;;;;;;;0.03;0.03;;;;;;;18.06;44.22;99946.31;5070247;28;20481;-74
2021/05/24 10:26:35;;;;;;;0.10;0.10;;;;;;;18.51;44.36;99936.22;5069824;28;20581;-74
2021/05/24 10:29:01;;;;;;;0.00;0.00;;;;;;;18.90;43.07;99939.44;5069723;28;20183;-74
2021/05/24 10:31:31;;;;;;;0.10;0.10;;;;;;;19.36;39.39;99927.22;5070278;28;20183;-74
2021/05/24 10:34:26;;;;;;;0.10;0.10;;;;;;;19.62;40.23;99927.03;5065574;28;20183;-73
2021/05/24 10:37:04;;;;;;;0.10;0.10;;;;;;;19.72;39.55;99928.31;5066371;28;20190;-73
2021/05/24 10:39:39;;;;;;;0.20;0.10;;;;;;;19.71;38.47;99918.41;5052481;28;20203;-75
2021/05/24 10:42:05;;;;;;;0.10;0.10;;;;;;;19.40;40.78;99911.44;5056431;28;20244;-75
2021/05/24 10:44:33;;;;;;;0.50;0.30;;;;;;;19.37;40.81;99912.97;5066034;28;20178;-75
2021/05/24 10:47:20;;;;;;;0.13;0.10;;;;;;;19.24;40.38;99904.19;5047863;28;20202;-73
2021/05/24 10:50:05;;;;;;;0.30;0.10;;;;;;;19.01;40.93;99896.06;5049516;28;20201;-76
2021/05/24 10:52:38;;;;;;;0.53;0.30;;;;;;;19.05;42.61;99896.09;5048265;28;20544;-76
2021/05/24 10:55:25;;;;;;;0.10;0.10;;;;;;;19.36;43.39;99891.19;5053222;28;20182;-75
2021/05/24 10:58:05;;;;;;;0.30;0.10;;;;;;;19.76;39.64;99904.97;5069582;28;20182;-74
2021/05/24 11:00:50;;;;;;;0.07;0.07;;;;;;;19.44;36.97;99882.56;5070893;28;20571;-75
2021/05/24 11:03:16;;;;;;;0.57;0.10;;;;;;;19.48;39.03;99865.94;5065746;28;20183;-75
2021/05/24 11:05:46;;;;;;;0.10;0.10;;;;;;;19.99;41.09;99871.44;5073684;28;20214;-74
2021/05/24 11:08:11;;;;;;;0.10;0.10;;;;;;;20.18;38.15;99859.22;5073502;28;20175;-73
2021/05/24 11:10:39;;;;;;;0.10;0.10;;;;;;;20.10;36.70;99865.91;5073473;28;20232;-74
2021/05/24 11:13:09;;;;;;;0.10;0.10;;;;;;;20.14;38.28;99872.31;5072277;28;20185;-73
2021/05/24 11:15:36;;;;;;;0.10;0.10;;;;;;;20.34;38.34;99859.69;5073525;28;20256;-74
2021/05/24 11:18:04;;;;;;;0.00;0.00;;;;;;;20.08;37.23;99855.22;5073316;28;20202;-74
2021/05/24 11:20:34;;;;;;;0.10;0.10;;;;;;;19.98;37.77;99855.19;5073642;28;20206;-75
2021/05/24 11:26:19;;;;;;;0.10;0.10;;;;;;;20.37;39.91;99844.22;5061875;28;20190;-76
2021/05/24 11:29:01;;;;;;;0.97;0.30;;;;;;;20.67;39.60;99835.59;5073882;28;20537;-74
2021/05/24 11:31:42;;;;;;;0.00;0.00;;;;;;;20.31;39.10;99831.94;5073289;28;20159;-75